sensor_id;sensor_type;location;lat;lon;timestamp;P1;durP1;ratioP1;P2;durP2;ratioP2
47483;SDS011;54076;50.322;18.650;2023-05-09T00:02:56;23.30;;;9.40;;
47483;SDS011;54076;50.322;18.650;2023-05-09T00:07:57;22.10;;;9.10;;
47483;SDS011;54076;50.322;18.650;2023-05-09T00:12:58;24.10;;;9.60;;
47483;SDS011;54076;50.322;18.650;2023-05-09T00:18:00;24.60;;;10.10;;
47483;SDS011;54076;50.322;18.650;2023-05-09T00:23:01;22.30;;;9.20;;
47483;SDS011;54076;50.322;18.650;2023-05-09T00:28:02;22.50;;;9.40;;
47483;SDS011;54076;50.322;18.650;2023-05-09T00:33:03;22.40;;;9.00;;
47483;SDS011;54076;50.322;18.650;2023-05-09T00:38:04;20.30;;;8.50;;
47483;SDS011;54076;50.322;18.650;2023-05-09T00:43:04;28.10;;;8.90;;
47483;SDS011;54076;50.322;18.650;2023-05-09T00:48:06;21.50;;;8.60;;
47483;SDS011;54076;50.322;18.650;2023-05-09T00:53:08;21.70;;;9.30;;
47483;SDS011;54076;50.322;18.650;2023-05-09T00:58:10;24.10;;;9.60;;
47483;SDS011;54076;50.322;18.650;2023-05-09T01:03:11;20.60;;;9.30;;
47483;SDS011;54076;50.322;18.650;2023-05-09T01:08:20;21.90;;;10.30;;
47483;SDS011;54076;50.322;18.650;2023-05-09T01:30:19;22.80;;;9.90;;
47483;SDS011;54076;50.322;18.650;2023-05-09T01:35:20;20.00;;;9.90;;
47483;SDS011;54076;50.322;18.650;2023-05-09T01:40:26;21.60;;;10.10;;
47483;SDS011;54076;50.322;18.650;2023-05-09T01:45:32;23.90;;;9.60;;
47483;SDS011;54076;50.322;18.650;2023-05-09T01:50:34;22.60;;;10.30;;
47483;SDS011;54076;50.322;18.650;2023-05-09T01:55:37;25.40;;;10.00;;
47483;SDS011;54076;50.322;18.650;2023-05-09T02:00:39;22.00;;;9.70;;
47483;SDS011;54076;50.322;18.650;2023-05-09T02:05:41;19.10;;;9.00;;
47483;SDS011;54076;50.322;18.650;2023-05-09T02:10:42;19.40;;;9.70;;
47483;SDS011;54076;50.322;18.650;2023-05-09T02:15:44;23.80;;;9.40;;
47483;SDS011;54076;50.322;18.650;2023-05-09T02:20:47;22.10;;;10.30;;
47483;SDS011;54076;50.322;18.650;2023-05-09T02:25:48;20.80;;;9.70;;
47483;SDS011;54076;50.322;18.650;2023-05-09T02:30:50;23.00;;;10.20;;
47483;SDS011;54076;50.322;18.650;2023-05-09T02:35:52;22.70;;;9.20;;
47483;SDS011;54076;50.322;18.650;2023-05-09T02:40:54;20.10;;;9.10;;
47483;SDS011;54076;50.322;18.650;2023-05-09T02:45:55;21.40;;;8.80;;
47483;SDS011;54076;50.322;18.650;2023-05-09T02:50:56;20.50;;;9.20;;
47483;SDS011;54076;50.322;18.650;2023-05-09T02:55:57;20.20;;;9.60;;
47483;SDS011;54076;50.322;18.650;2023-05-09T03:00:58;26.90;;;10.30;;
47483;SDS011;54076;50.322;18.650;2023-05-09T03:05:59;22.90;;;9.40;;
47483;SDS011;54076;50.322;18.650;2023-05-09T03:11:01;21.00;;;9.80;;
47483;SDS011;54076;50.322;18.650;2023-05-09T03:16:02;20.70;;;9.10;;
47483;SDS011;54076;50.322;18.650;2023-05-09T03:21:03;24.50;;;10.40;;
47483;SDS011;54076;50.322;18.650;2023-05-09T03:26:04;23.20;;;10.20;;
47483;SDS011;54076;50.322;18.650;2023-05-09T03:31:05;25.10;;;11.60;;
47483;SDS011;54076;50.322;18.650;2023-05-09T03:36:06;32.80;;;11.40;;
47483;SDS011;54076;50.322;18.650;2023-05-09T03:41:08;28.00;;;11.40;;
47483;SDS011;54076;50.322;18.650;2023-05-09T03:46:09;28.30;;;10.40;;
47483;SDS011;54076;50.322;18.650;2023-05-09T03:51:10;26.80;;;10.70;;
47483;SDS011;54076;50.322;18.650;2023-05-09T03:56:12;23.80;;;9.70;;
47483;SDS011;54076;50.322;18.650;2023-05-09T04:01:14;23.90;;;10.00;;
47483;SDS011;54076;50.322;18.650;2023-05-09T04:06:15;19.70;;;9.20;;
47483;SDS011;54076;50.322;18.650;2023-05-09T04:11:16;19.30;;;8.30;;
47483;SDS011;54076;50.322;18.650;2023-05-09T04:16:17;17.30;;;8.70;;
47483;SDS011;54076;50.322;18.650;2023-05-09T04:21:18;22.40;;;9.00;;
47483;SDS011;54076;50.322;18.650;2023-05-09T04:26:19;20.10;;;9.10;;
47483;SDS011;54076;50.322;18.650;2023-05-09T04:31:22;20.90;;;9.10;;
47483;SDS011;54076;50.322;18.650;2023-05-09T04:36:23;20.40;;;8.90;;
47483;SDS011;54076;50.322;18.650;2023-05-09T04:41:24;19.50;;;8.70;;
47483;SDS011;54076;50.322;18.650;2023-05-09T04:46:25;18.10;;;9.20;;
47483;SDS011;54076;50.322;18.650;2023-05-09T04:51:26;19.80;;;8.90;;
47483;SDS011;54076;50.322;18.650;2023-05-09T04:56:27;19.40;;;9.40;;
47483;SDS011;54076;50.322;18.650;2023-05-09T05:01:28;16.70;;;8.70;;
47483;SDS011;54076;50.322;18.650;2023-05-09T05:06:29;20.40;;;8.20;;
47483;SDS011;54076;50.322;18.650;2023-05-09T05:11:31;16.60;;;8.50;;
47483;SDS011;54076;50.322;18.650;2023-05-09T05:16:32;16.90;;;7.40;;
47483;SDS011;54076;50.322;18.650;2023-05-09T05:21:35;16.50;;;7.10;;
47483;SDS011;54076;50.322;18.650;2023-05-09T05:26:37;14.20;;;7.40;;
47483;SDS011;54076;50.322;18.650;2023-05-09T05:31:38;17.70;;;7.40;;
47483;SDS011;54076;50.322;18.650;2023-05-09T05:36:39;15.90;;;7.50;;
47483;SDS011;54076;50.322;18.650;2023-05-09T05:41:40;14.90;;;6.90;;
47483;SDS011;54076;50.322;18.650;2023-05-09T05:46:41;15.80;;;7.30;;
47483;SDS011;54076;50.322;18.650;2023-05-09T05:51:42;12.80;;;6.90;;
47483;SDS011;54076;50.322;18.650;2023-05-09T05:56:43;19.00;;;6.50;;
47483;SDS011;54076;50.322;18.650;2023-05-09T06:01:44;12.20;;;6.30;;
47483;SDS011;54076;50.322;18.650;2023-05-09T06:06:45;13.60;;;5.90;;
47483;SDS011;54076;50.322;18.650;2023-05-09T06:11:46;16.00;;;6.60;;
47483;SDS011;54076;50.322;18.650;2023-05-09T06:16:47;12.60;;;6.00;;
47483;SDS011;54076;50.322;18.650;2023-05-09T06:21:48;12.70;;;6.10;;
47483;SDS011;54076;50.322;18.650;2023-05-09T06:26:49;12.20;;;5.80;;
47483;SDS011;54076;50.322;18.650;2023-05-09T06:31:50;10.50;;;5.00;;
47483;SDS011;54076;50.322;18.650;2023-05-09T06:36:51;12.70;;;6.10;;
47483;SDS011;54076;50.322;18.650;2023-05-09T06:41:52;71.30;;;7.90;;
47483;SDS011;54076;50.322;18.650;2023-05-09T06:46:53;12.20;;;6.10;;
47483;SDS011;54076;50.322;18.650;2023-05-09T06:51:54;14.60;;;5.50;;
47483;SDS011;54076;50.322;18.650;2023-05-09T06:56:55;26.70;;;6.50;;
47483;SDS011;54076;50.322;18.650;2023-05-09T07:01:56;26.00;;;6.50;;
47483;SDS011;54076;50.322;18.650;2023-05-09T07:06:57;10.10;;;5.60;;
47483;SDS011;54076;50.322;18.650;2023-05-09T07:12:00;11.30;;;5.40;;
47483;SDS011;54076;50.322;18.650;2023-05-09T07:17:01;21.30;;;5.50;;
47483;SDS011;54076;50.322;18.650;2023-05-09T07:22:02;10.80;;;4.50;;
47483;SDS011;54076;50.322;18.650;2023-05-09T07:27:03;18.50;;;4.60;;
47483;SDS011;54076;50.322;18.650;2023-05-09T07:32:04;24.90;;;4.90;;
47483;SDS011;54076;50.322;18.650;2023-05-09T07:37:05;15.20;;;4.70;;
47483;SDS011;54076;50.322;18.650;2023-05-09T07:42:06;14.00;;;4.30;;
47483;SDS011;54076;50.322;18.650;2023-05-09T07:47:08;13.10;;;4.00;;
47483;SDS011;54076;50.322;18.650;2023-05-09T07:52:09;45.60;;;6.00;;
47483;SDS011;54076;50.322;18.650;2023-05-09T07:57:10;11.00;;;4.60;;
47483;SDS011;54076;50.322;18.650;2023-05-09T08:02:11;8.80;;;4.20;;
47483;SDS011;54076;50.322;18.650;2023-05-09T08:07:12;9.50;;;3.70;;
47483;SDS011;54076;50.322;18.650;2023-05-09T08:12:13;11.00;;;4.20;;
47483;SDS011;54076;50.322;18.650;2023-05-09T08:17:14;9.50;;;4.80;;
47483;SDS011;54076;50.322;18.650;2023-05-09T08:22:16;9.60;;;3.90;;
47483;SDS011;54076;50.322;18.650;2023-05-09T08:27:18;14.10;;;4.00;;
47483;SDS011;54076;50.322;18.650;2023-05-09T08:32:19;16.20;;;4.00;;
47483;SDS011;54076;50.322;18.650;2023-05-09T08:37:20;11.70;;;4.00;;
47483;SDS011;54076;50.322;18.650;2023-05-09T08:42:21;12.60;;;4.20;;
47483;SDS011;54076;50.322;18.650;2023-05-09T08:47:23;7.00;;;3.60;;
47483;SDS011;54076;50.322;18.650;2023-05-09T08:52:24;7.70;;;3.70;;
47483;SDS011;54076;50.322;18.650;2023-05-09T08:57:26;7.80;;;3.60;;
47483;SDS011;54076;50.322;18.650;2023-05-09T09:02:28;6.90;;;3.90;;
47483;SDS011;54076;50.322;18.650;2023-05-09T09:07:29;9.70;;;4.10;;
47483;SDS011;54076;50.322;18.650;2023-05-09T09:12:33;8.60;;;3.30;;
47483;SDS011;54076;50.322;18.650;2023-05-09T09:17:36;7.30;;;3.40;;
47483;SDS011;54076;50.322;18.650;2023-05-09T09:22:42;8.10;;;3.70;;
47483;SDS011;54076;50.322;18.650;2023-05-09T09:27:44;8.10;;;4.00;;
47483;SDS011;54076;50.322;18.650;2023-05-09T09:32:45;13.40;;;4.00;;
47483;SDS011;54076;50.322;18.650;2023-05-09T09:37:46;7.00;;;3.90;;
47483;SDS011;54076;50.322;18.650;2023-05-09T09:42:50;8.70;;;3.60;;
47483;SDS011;54076;50.322;18.650;2023-05-09T09:47:52;6.80;;;3.10;;
47483;SDS011;54076;50.322;18.650;2023-05-09T09:52:55;6.50;;;3.20;;
47483;SDS011;54076;50.322;18.650;2023-05-09T09:57:56;7.50;;;3.50;;
47483;SDS011;54076;50.322;18.650;2023-05-09T10:02:57;6.50;;;3.30;;
47483;SDS011;54076;50.322;18.650;2023-05-09T10:08:01;10.00;;;3.30;;
47483;SDS011;54076;50.322;18.650;2023-05-09T10:13:08;8.70;;;3.50;;
47483;SDS011;54076;50.322;18.650;2023-05-09T10:18:11;12.50;;;4.80;;
47483;SDS011;54076;50.322;18.650;2023-05-09T10:23:17;12.40;;;3.80;;
47483;SDS011;54076;50.322;18.650;2023-05-09T10:28:22;6.30;;;3.10;;
47483;SDS011;54076;50.322;18.650;2023-05-09T10:33:37;6.90;;;3.20;;
47483;SDS011;54076;50.322;18.650;2023-05-09T10:38:50;8.50;;;2.40;;
47483;SDS011;54076;50.322;18.650;2023-05-09T10:43:57;6.50;;;2.90;;
47483;SDS011;54076;50.322;18.650;2023-05-09T10:48:59;8.50;;;2.80;;
47483;SDS011;54076;50.322;18.650;2023-05-09T10:54:00;5.80;;;2.70;;
47483;SDS011;54076;50.322;18.650;2023-05-09T11:04:35;6.50;;;3.10;;
47483;SDS011;54076;50.322;18.650;2023-05-09T11:09:38;22.40;;;3.80;;
47483;SDS011;54076;50.322;18.650;2023-05-09T11:14:42;6.10;;;2.70;;
47483;SDS011;54076;50.322;18.650;2023-05-09T11:24:46;6.70;;;2.90;;
47483;SDS011;54076;50.322;18.650;2023-05-09T11:29:56;9.50;;;2.80;;
47483;SDS011;54076;50.322;18.650;2023-05-09T11:35:16;4.90;;;2.80;;
47483;SDS011;54076;50.322;18.650;2023-05-09T11:40:20;8.30;;;4.00;;
47483;SDS011;54076;50.322;18.650;2023-05-09T11:45:26;16.10;;;3.50;;
47483;SDS011;54076;50.322;18.650;2023-05-09T11:50:30;10.20;;;3.00;;
47483;SDS011;54076;50.322;18.650;2023-05-09T11:55:31;7.60;;;2.80;;
47483;SDS011;54076;50.322;18.650;2023-05-09T12:00:32;14.20;;;3.00;;
47483;SDS011;54076;50.322;18.650;2023-05-09T12:05:33;5.40;;;2.40;;
47483;SDS011;54076;50.322;18.650;2023-05-09T12:10:37;8.50;;;2.60;;
47483;SDS011;54076;50.322;18.650;2023-05-09T12:15:39;6.40;;;2.50;;
47483;SDS011;54076;50.322;18.650;2023-05-09T12:20:47;6.60;;;3.00;;
47483;SDS011;54076;50.322;18.650;2023-05-09T12:25:53;4.50;;;2.30;;
47483;SDS011;54076;50.322;18.650;2023-05-09T12:30:55;6.00;;;2.50;;
47483;SDS011;54076;50.322;18.650;2023-05-09T12:41:04;5.00;;;2.20;;
47483;SDS011;54076;50.322;18.650;2023-05-09T12:46:07;18.90;;;3.10;;
47483;SDS011;54076;50.322;18.650;2023-05-09T12:51:08;5.40;;;2.30;;
47483;SDS011;54076;50.322;18.650;2023-05-09T12:56:13;5.70;;;2.60;;
47483;SDS011;54076;50.322;18.650;2023-05-09T13:01:16;6.00;;;2.90;;
47483;SDS011;54076;50.322;18.650;2023-05-09T13:06:18;5.10;;;2.40;;
47483;SDS011;54076;50.322;18.650;2023-05-09T13:11:20;4.60;;;1.90;;
47483;SDS011;54076;50.322;18.650;2023-05-09T13:16:22;5.50;;;2.40;;
47483;SDS011;54076;50.322;18.650;2023-05-09T13:21:23;5.40;;;2.40;;
47483;SDS011;54076;50.322;18.650;2023-05-09T13:26:24;7.90;;;2.50;;
47483;SDS011;54076;50.322;18.650;2023-05-09T13:31:26;6.30;;;2.60;;
47483;SDS011;54076;50.322;18.650;2023-05-09T13:36:27;5.70;;;2.60;;
47483;SDS011;54076;50.322;18.650;2023-05-09T13:41:28;4.60;;;2.40;;
47483;SDS011;54076;50.322;18.650;2023-05-09T13:46:31;6.40;;;2.50;;
47483;SDS011;54076;50.322;18.650;2023-05-09T13:51:32;6.30;;;2.60;;
47483;SDS011;54076;50.322;18.650;2023-05-09T13:56:34;5.50;;;2.60;;
47483;SDS011;54076;50.322;18.650;2023-05-09T14:01:35;4.40;;;2.20;;
47483;SDS011;54076;50.322;18.650;2023-05-09T14:06:36;6.50;;;2.70;;
47483;SDS011;54076;50.322;18.650;2023-05-09T14:11:37;5.10;;;2.60;;
47483;SDS011;54076;50.322;18.650;2023-05-09T14:16:38;6.70;;;3.30;;
47483;SDS011;54076;50.322;18.650;2023-05-09T14:21:39;6.50;;;2.60;;
47483;SDS011;54076;50.322;18.650;2023-05-09T14:26:42;7.40;;;2.40;;
47483;SDS011;54076;50.322;18.650;2023-05-09T14:31:44;7.40;;;2.70;;
47483;SDS011;54076;50.322;18.650;2023-05-09T14:36:45;6.70;;;2.70;;
47483;SDS011;54076;50.322;18.650;2023-05-09T14:41:46;5.30;;;2.50;;
47483;SDS011;54076;50.322;18.650;2023-05-09T14:46:49;4.40;;;2.60;;
47483;SDS011;54076;50.322;18.650;2023-05-09T14:51:50;6.30;;;2.30;;
47483;SDS011;54076;50.322;18.650;2023-05-09T14:56:52;8.60;;;2.80;;
47483;SDS011;54076;50.322;18.650;2023-05-09T15:01:53;5.60;;;2.80;;
47483;SDS011;54076;50.322;18.650;2023-05-09T15:06:53;7.00;;;3.00;;
47483;SDS011;54076;50.322;18.650;2023-05-09T15:11:54;7.40;;;2.60;;
47483;SDS011;54076;50.322;18.650;2023-05-09T15:16:56;6.40;;;2.90;;
47483;SDS011;54076;50.322;18.650;2023-05-09T15:21:59;4.40;;;2.40;;
47483;SDS011;54076;50.322;18.650;2023-05-09T15:27:00;7.00;;;2.90;;
47483;SDS011;54076;50.322;18.650;2023-05-09T15:32:02;4.90;;;2.60;;
47483;SDS011;54076;50.322;18.650;2023-05-09T15:37:03;6.00;;;2.50;;
47483;SDS011;54076;50.322;18.650;2023-05-09T15:42:04;6.00;;;2.40;;
47483;SDS011;54076;50.322;18.650;2023-05-09T15:47:09;4.70;;;2.10;;
47483;SDS011;54076;50.322;18.650;2023-05-09T15:52:11;7.50;;;2.50;;
47483;SDS011;54076;50.322;18.650;2023-05-09T15:57:12;4.50;;;2.30;;
47483;SDS011;54076;50.322;18.650;2023-05-09T16:02:13;6.40;;;2.20;;
47483;SDS011;54076;50.322;18.650;2023-05-09T16:07:14;4.80;;;2.00;;
47483;SDS011;54076;50.322;18.650;2023-05-09T16:12:15;9.00;;;2.00;;
47483;SDS011;54076;50.322;18.650;2023-05-09T16:17:16;6.30;;;2.10;;
47483;SDS011;54076;50.322;18.650;2023-05-09T16:22:17;5.60;;;2.40;;
47483;SDS011;54076;50.322;18.650;2023-05-09T16:27:18;8.00;;;2.20;;
47483;SDS011;54076;50.322;18.650;2023-05-09T16:32:19;3.90;;;1.90;;
47483;SDS011;54076;50.322;18.650;2023-05-09T16:37:20;4.90;;;2.10;;
47483;SDS011;54076;50.322;18.650;2023-05-09T16:42:21;5.50;;;2.10;;
47483;SDS011;54076;50.322;18.650;2023-05-09T16:47:22;6.30;;;2.80;;
47483;SDS011;54076;50.322;18.650;2023-05-09T16:52:23;5.00;;;2.10;;
47483;SDS011;54076;50.322;18.650;2023-05-09T16:57:24;8.40;;;2.00;;
47483;SDS011;54076;50.322;18.650;2023-05-09T17:02:25;5.40;;;2.30;;
47483;SDS011;54076;50.322;18.650;2023-05-09T17:07:27;4.40;;;2.10;;
47483;SDS011;54076;50.322;18.650;2023-05-09T17:12:28;5.90;;;2.30;;
47483;SDS011;54076;50.322;18.650;2023-05-09T17:17:29;6.10;;;2.70;;
47483;SDS011;54076;50.322;18.650;2023-05-09T17:22:30;7.40;;;2.30;;
47483;SDS011;54076;50.322;18.650;2023-05-09T17:27:32;7.60;;;3.00;;
47483;SDS011;54076;50.322;18.650;2023-05-09T17:32:33;5.30;;;2.70;;
47483;SDS011;54076;50.322;18.650;2023-05-09T17:37:34;5.50;;;2.30;;
47483;SDS011;54076;50.322;18.650;2023-05-09T17:42:35;7.90;;;2.10;;
47483;SDS011;54076;50.322;18.650;2023-05-09T17:47:37;5.40;;;2.70;;
47483;SDS011;54076;50.322;18.650;2023-05-09T17:52:38;7.60;;;2.50;;
47483;SDS011;54076;50.322;18.650;2023-05-09T17:57:39;5.80;;;2.60;;
47483;SDS011;54076;50.322;18.650;2023-05-09T18:02:41;6.60;;;2.90;;
47483;SDS011;54076;50.322;18.650;2023-05-09T18:07:42;8.00;;;2.80;;
47483;SDS011;54076;50.322;18.650;2023-05-09T18:12:43;6.90;;;2.60;;
47483;SDS011;54076;50.322;18.650;2023-05-09T18:17:45;6.40;;;2.80;;
47483;SDS011;54076;50.322;18.650;2023-05-09T18:22:47;6.80;;;3.00;;
47483;SDS011;54076;50.322;18.650;2023-05-09T18:27:49;7.80;;;3.00;;
47483;SDS011;54076;50.322;18.650;2023-05-09T18:32:50;8.30;;;3.20;;
47483;SDS011;54076;50.322;18.650;2023-05-09T18:37:51;6.80;;;3.10;;
47483;SDS011;54076;50.322;18.650;2023-05-09T18:42:52;6.70;;;3.00;;
47483;SDS011;54076;50.322;18.650;2023-05-09T18:47:53;7.30;;;3.30;;
47483;SDS011;54076;50.322;18.650;2023-05-09T18:52:54;8.30;;;3.60;;
47483;SDS011;54076;50.322;18.650;2023-05-09T18:57:55;7.00;;;4.00;;
47483;SDS011;54076;50.322;18.650;2023-05-09T19:02:56;11.60;;;3.80;;
47483;SDS011;54076;50.322;18.650;2023-05-09T19:07:57;7.00;;;3.60;;
47483;SDS011;54076;50.322;18.650;2023-05-09T19:12:58;6.80;;;3.40;;
47483;SDS011;54076;50.322;18.650;2023-05-09T19:17:59;8.30;;;3.80;;
47483;SDS011;54076;50.322;18.650;2023-05-09T19:23:01;11.40;;;3.30;;
47483;SDS011;54076;50.322;18.650;2023-05-09T19:28:02;7.70;;;4.10;;
47483;SDS011;54076;50.322;18.650;2023-05-09T19:33:03;8.70;;;3.70;;
47483;SDS011;54076;50.322;18.650;2023-05-09T19:38:04;7.80;;;3.60;;
47483;SDS011;54076;50.322;18.650;2023-05-09T19:43:05;8.70;;;3.90;;
47483;SDS011;54076;50.322;18.650;2023-05-09T19:48:06;8.70;;;3.40;;
47483;SDS011;54076;50.322;18.650;2023-05-09T19:53:08;9.60;;;3.40;;
47483;SDS011;54076;50.322;18.650;2023-05-09T19:58:09;8.10;;;3.40;;
47483;SDS011;54076;50.322;18.650;2023-05-09T20:03:10;8.10;;;3.70;;
47483;SDS011;54076;50.322;18.650;2023-05-09T20:08:11;6.60;;;3.50;;
47483;SDS011;54076;50.322;18.650;2023-05-09T20:13:12;6.70;;;3.50;;
47483;SDS011;54076;50.322;18.650;2023-05-09T20:18:13;9.80;;;3.70;;
47483;SDS011;54076;50.322;18.650;2023-05-09T20:23:15;8.70;;;3.60;;
47483;SDS011;54076;50.322;18.650;2023-05-09T20:28:17;7.70;;;3.50;;
47483;SDS011;54076;50.322;18.650;2023-05-09T20:33:20;11.20;;;3.80;;
47483;SDS011;54076;50.322;18.650;2023-05-09T20:38:21;10.70;;;4.10;;
47483;SDS011;54076;50.322;18.650;2023-05-09T20:43:22;10.30;;;3.90;;
47483;SDS011;54076;50.322;18.650;2023-05-09T20:48:24;9.70;;;4.10;;
47483;SDS011;54076;50.322;18.650;2023-05-09T20:53:26;13.60;;;4.30;;
47483;SDS011;54076;50.322;18.650;2023-05-09T20:58:32;7.90;;;3.90;;
47483;SDS011;54076;50.322;18.650;2023-05-09T21:03:33;7.60;;;3.80;;
47483;SDS011;54076;50.322;18.650;2023-05-09T21:08:35;10.20;;;4.20;;
47483;SDS011;54076;50.322;18.650;2023-05-09T21:13:36;8.80;;;3.60;;
47483;SDS011;54076;50.322;18.650;2023-05-09T21:18:37;8.60;;;4.00;;
47483;SDS011;54076;50.322;18.650;2023-05-09T21:23:37;8.90;;;4.00;;
47483;SDS011;54076;50.322;18.650;2023-05-09T21:28:38;8.80;;;3.90;;
47483;SDS011;54076;50.322;18.650;2023-05-09T21:33:40;12.70;;;4.00;;
47483;SDS011;54076;50.322;18.650;2023-05-09T21:38:40;8.10;;;4.00;;
47483;SDS011;54076;50.322;18.650;2023-05-09T21:43:41;9.80;;;4.30;;
47483;SDS011;54076;50.322;18.650;2023-05-09T21:48:42;9.70;;;4.60;;
47483;SDS011;54076;50.322;18.650;2023-05-09T21:53:43;7.50;;;3.70;;
47483;SDS011;54076;50.322;18.650;2023-05-09T21:58:44;9.00;;;4.10;;
47483;SDS011;54076;50.322;18.650;2023-05-09T22:03:45;8.50;;;3.50;;
47483;SDS011;54076;50.322;18.650;2023-05-09T22:08:46;9.20;;;4.60;;
47483;SDS011;54076;50.322;18.650;2023-05-09T22:13:47;8.70;;;4.00;;
47483;SDS011;54076;50.322;18.650;2023-05-09T22:18:48;11.50;;;4.50;;
47483;SDS011;54076;50.322;18.650;2023-05-09T22:23:49;10.10;;;4.20;;
47483;SDS011;54076;50.322;18.650;2023-05-09T22:28:50;9.10;;;4.00;;
47483;SDS011;54076;50.322;18.650;2023-05-09T22:33:51;7.90;;;3.70;;
47483;SDS011;54076;50.322;18.650;2023-05-09T22:38:52;10.10;;;4.60;;
47483;SDS011;54076;50.322;18.650;2023-05-09T22:43:53;7.70;;;4.20;;
47483;SDS011;54076;50.322;18.650;2023-05-09T22:48:54;10.70;;;4.80;;
47483;SDS011;54076;50.322;18.650;2023-05-09T22:53:55;10.70;;;4.30;;
47483;SDS011;54076;50.322;18.650;2023-05-09T22:58:56;10.20;;;4.80;;
47483;SDS011;54076;50.322;18.650;2023-05-09T23:03:58;9.20;;;4.30;;
47483;SDS011;54076;50.322;18.650;2023-05-09T23:08:59;11.00;;;3.90;;
47483;SDS011;54076;50.322;18.650;2023-05-09T23:14:00;12.40;;;4.30;;
47483;SDS011;54076;50.322;18.650;2023-05-09T23:19:02;9.30;;;4.00;;
47483;SDS011;54076;50.322;18.650;2023-05-09T23:24:03;12.30;;;4.80;;
47483;SDS011;54076;50.322;18.650;2023-05-09T23:29:04;11.00;;;4.50;;
47483;SDS011;54076;50.322;18.650;2023-05-09T23:34:05;9.70;;;4.20;;
47483;SDS011;54076;50.322;18.650;2023-05-09T23:39:06;9.30;;;4.90;;
47483;SDS011;54076;50.322;18.650;2023-05-09T23:44:07;12.60;;;4.90;;
47483;SDS011;54076;50.322;18.650;2023-05-09T23:49:08;9.60;;;4.30;;
47483;SDS011;54076;50.322;18.650;2023-05-09T23:54:09;12.10;;;4.90;;
47483;SDS011;54076;50.322;18.650;2023-05-09T23:59:10;10.50;;;4.90;;
